sensor_id;sensor_type;location;lat;lon;timestamp;P1;durP1;ratioP1;P2;durP2;ratioP2
3503;SDS011;1766;53.490;10.174;2022-12-29T00:01:15;4.70;;;2.50;;
3503;SDS011;1766;53.490;10.174;2022-12-29T00:03:17;6.27;;;2.27;;
3503;SDS011;1766;53.490;10.174;2022-12-29T00:05:19;2.30;;;2.10;;
3503;SDS011;1766;53.490;10.174;2022-12-29T00:07:22;3.10;;;2.33;;
3503;SDS011;1766;53.490;10.174;2022-12-29T00:09:24;2.40;;;2.20;;
3503;SDS011;1766;53.490;10.174;2022-12-29T00:11:27;3.43;;;2.70;;
3503;SDS011;1766;53.490;10.174;2022-12-29T00:13:29;2.03;;;1.93;;
3503;SDS011;1766;53.490;10.174;2022-12-29T00:15:44;4.80;;;2.40;;
3503;SDS011;1766;53.490;10.174;2022-12-29T00:17:46;2.80;;;2.50;;
3503;SDS011;1766;53.490;10.174;2022-12-29T00:19:48;3.70;;;2.37;;
3503;SDS011;1766;53.490;10.174;2022-12-29T00:22:04;2.53;;;2.13;;
3503;SDS011;1766;53.490;10.174;2022-12-29T00:24:21;4.40;;;2.33;;
3503;SDS011;1766;53.490;10.174;2022-12-29T00:26:37;3.00;;;2.67;;
3503;SDS011;1766;53.490;10.174;2022-12-29T00:28:53;3.53;;;2.20;;
3503;SDS011;1766;53.490;10.174;2022-12-29T00:31:10;2.53;;;2.37;;
3503;SDS011;1766;53.490;10.174;2022-12-29T00:33:28;2.80;;;2.23;;
3503;SDS011;1766;53.490;10.174;2022-12-29T00:35:46;3.13;;;2.50;;
3503;SDS011;1766;53.490;10.174;2022-12-29T00:37:54;2.83;;;2.10;;
3503;SDS011;1766;53.490;10.174;2022-12-29T00:40:14;2.73;;;2.40;;
3503;SDS011;1766;53.490;10.174;2022-12-29T00:42:30;3.17;;;2.70;;
3503;SDS011;1766;53.490;10.174;2022-12-29T00:44:45;2.70;;;2.50;;
3503;SDS011;1766;53.490;10.174;2022-12-29T00:46:47;4.77;;;3.17;;
3503;SDS011;1766;53.490;10.174;2022-12-29T00:48:49;3.00;;;2.80;;
3503;SDS011;1766;53.490;10.174;2022-12-29T00:51:05;3.17;;;2.87;;
3503;SDS011;1766;53.490;10.174;2022-12-29T00:53:07;4.23;;;2.57;;
3503;SDS011;1766;53.490;10.174;2022-12-29T00:55:08;4.30;;;3.20;;
3503;SDS011;1766;53.490;10.174;2022-12-29T00:57:12;2.83;;;2.63;;
3503;SDS011;1766;53.490;10.174;2022-12-29T00:59:14;2.90;;;2.70;;
3503;SDS011;1766;53.490;10.174;2022-12-29T01:01:16;3.27;;;2.97;;
3503;SDS011;1766;53.490;10.174;2022-12-29T01:03:22;3.40;;;2.87;;
3503;SDS011;1766;53.490;10.174;2022-12-29T01:05:24;2.60;;;2.20;;
3503;SDS011;1766;53.490;10.174;2022-12-29T01:07:26;2.90;;;2.70;;
3503;SDS011;1766;53.490;10.174;2022-12-29T01:09:28;4.13;;;2.53;;
3503;SDS011;1766;53.490;10.174;2022-12-29T01:11:44;3.93;;;2.90;;
3503;SDS011;1766;53.490;10.174;2022-12-29T01:13:47;3.17;;;2.90;;
3503;SDS011;1766;53.490;10.174;2022-12-29T01:15:49;2.97;;;2.67;;
3503;SDS011;1766;53.490;10.174;2022-12-29T01:17:51;2.57;;;2.33;;
3503;SDS011;1766;53.490;10.174;2022-12-29T01:19:53;3.00;;;2.53;;
3503;SDS011;1766;53.490;10.174;2022-12-29T01:21:55;3.07;;;2.87;;
3503;SDS011;1766;53.490;10.174;2022-12-29T01:23:56;2.60;;;2.40;;
3503;SDS011;1766;53.490;10.174;2022-12-29T01:26:07;3.17;;;2.97;;
3503;SDS011;1766;53.490;10.174;2022-12-29T01:28:10;4.10;;;2.53;;
3503;SDS011;1766;53.490;10.174;2022-12-29T01:30:13;2.77;;;2.40;;
3503;SDS011;1766;53.490;10.174;2022-12-29T01:32:15;3.37;;;2.70;;
3503;SDS011;1766;53.490;10.174;2022-12-29T01:34:17;4.93;;;3.57;;
3503;SDS011;1766;53.490;10.174;2022-12-29T01:36:19;4.03;;;2.93;;
3503;SDS011;1766;53.490;10.174;2022-12-29T01:38:20;3.93;;;3.00;;
3503;SDS011;1766;53.490;10.174;2022-12-29T01:40:22;3.47;;;3.17;;
3503;SDS011;1766;53.490;10.174;2022-12-29T01:42:24;3.20;;;3.00;;
3503;SDS011;1766;53.490;10.174;2022-12-29T01:47:00;3.00;;;2.80;;
3503;SDS011;1766;53.490;10.174;2022-12-29T01:49:03;3.70;;;3.20;;
3503;SDS011;1766;53.490;10.174;2022-12-29T01:51:12;4.50;;;3.20;;
3503;SDS011;1766;53.490;10.174;2022-12-29T01:53:16;4.70;;;3.30;;
3503;SDS011;1766;53.490;10.174;2022-12-29T01:55:21;4.67;;;3.03;;
3503;SDS011;1766;53.490;10.174;2022-12-29T01:57:24;3.50;;;3.20;;
3503;SDS011;1766;53.490;10.174;2022-12-29T01:59:31;3.73;;;3.37;;
3503;SDS011;1766;53.490;10.174;2022-12-29T02:01:37;3.70;;;3.47;;
3503;SDS011;1766;53.490;10.174;2022-12-29T02:03:40;3.77;;;3.47;;
3503;SDS011;1766;53.490;10.174;2022-12-29T02:05:44;3.60;;;3.30;;
3503;SDS011;1766;53.490;10.174;2022-12-29T02:07:51;3.70;;;3.40;;
3503;SDS011;1766;53.490;10.174;2022-12-29T02:09:55;5.30;;;3.30;;
3503;SDS011;1766;53.490;10.174;2022-12-29T02:11:58;3.93;;;3.63;;
3503;SDS011;1766;53.490;10.174;2022-12-29T02:14:00;3.60;;;3.30;;
3503;SDS011;1766;53.490;10.174;2022-12-29T02:16:06;3.00;;;2.80;;
3503;SDS011;1766;53.490;10.174;2022-12-29T02:18:36;4.00;;;2.37;;
3503;SDS011;1766;53.490;10.174;2022-12-29T02:20:56;3.93;;;3.00;;
3503;SDS011;1766;53.490;10.174;2022-12-29T02:23:30;5.90;;;2.80;;
3503;SDS011;1766;53.490;10.174;2022-12-29T02:25:56;2.93;;;2.67;;
3503;SDS011;1766;53.490;10.174;2022-12-29T02:28:22;3.17;;;2.87;;
3503;SDS011;1766;53.490;10.174;2022-12-29T02:30:59;3.60;;;2.73;;
3503;SDS011;1766;53.490;10.174;2022-12-29T02:33:21;4.23;;;2.73;;
3503;SDS011;1766;53.490;10.174;2022-12-29T02:35:37;2.80;;;2.60;;
3503;SDS011;1766;53.490;10.174;2022-12-29T02:37:54;4.57;;;2.07;;
3503;SDS011;1766;53.490;10.174;2022-12-29T02:40:06;3.50;;;2.80;;
3503;SDS011;1766;53.490;10.174;2022-12-29T02:42:21;3.33;;;2.47;;
3503;SDS011;1766;53.490;10.174;2022-12-29T02:44:34;2.83;;;2.57;;
3503;SDS011;1766;53.490;10.174;2022-12-29T02:46:50;3.13;;;2.93;;
3503;SDS011;1766;53.490;10.174;2022-12-29T02:48:57;3.87;;;2.93;;
3503;SDS011;1766;53.490;10.174;2022-12-29T02:51:09;2.40;;;2.27;;
3503;SDS011;1766;53.490;10.174;2022-12-29T02:53:19;2.70;;;2.50;;
3503;SDS011;1766;53.490;10.174;2022-12-29T02:55:47;2.90;;;2.50;;
3503;SDS011;1766;53.490;10.174;2022-12-29T02:57:48;3.63;;;2.73;;
3503;SDS011;1766;53.490;10.174;2022-12-29T03:00:17;2.90;;;2.30;;
3503;SDS011;1766;53.490;10.174;2022-12-29T03:02:25;2.80;;;2.47;;
3503;SDS011;1766;53.490;10.174;2022-12-29T03:04:48;3.47;;;2.10;;
3503;SDS011;1766;53.490;10.174;2022-12-29T03:07:08;3.23;;;2.47;;
3503;SDS011;1766;53.490;10.174;2022-12-29T03:09:21;5.17;;;2.50;;
3503;SDS011;1766;53.490;10.174;2022-12-29T03:11:38;2.73;;;2.50;;
3503;SDS011;1766;53.490;10.174;2022-12-29T03:14:02;2.47;;;2.37;;
3503;SDS011;1766;53.490;10.174;2022-12-29T03:16:23;2.40;;;2.30;;
3503;SDS011;1766;53.490;10.174;2022-12-29T03:18:37;3.33;;;2.43;;
3503;SDS011;1766;53.490;10.174;2022-12-29T03:20:48;2.17;;;2.07;;
3503;SDS011;1766;53.490;10.174;2022-12-29T03:22:55;3.77;;;2.60;;
3503;SDS011;1766;53.490;10.174;2022-12-29T03:25:02;2.47;;;2.37;;
3503;SDS011;1766;53.490;10.174;2022-12-29T03:27:10;2.57;;;2.37;;
3503;SDS011;1766;53.490;10.174;2022-12-29T03:29:17;2.40;;;2.20;;
3503;SDS011;1766;53.490;10.174;2022-12-29T03:31:20;2.80;;;2.40;;
3503;SDS011;1766;53.490;10.174;2022-12-29T03:33:25;2.30;;;2.10;;
3503;SDS011;1766;53.490;10.174;2022-12-29T03:35:32;2.43;;;2.23;;
3503;SDS011;1766;53.490;10.174;2022-12-29T03:37:39;4.07;;;2.83;;
3503;SDS011;1766;53.490;10.174;2022-12-29T03:39:45;2.37;;;2.17;;
3503;SDS011;1766;53.490;10.174;2022-12-29T03:41:47;2.83;;;2.20;;
3503;SDS011;1766;53.490;10.174;2022-12-29T03:43:52;2.10;;;2.00;;
3503;SDS011;1766;53.490;10.174;2022-12-29T03:45:54;2.00;;;1.90;;
3503;SDS011;1766;53.490;10.174;2022-12-29T03:47:56;2.30;;;2.10;;
3503;SDS011;1766;53.490;10.174;2022-12-29T03:49:58;2.10;;;2.00;;
3503;SDS011;1766;53.490;10.174;2022-12-29T03:52:01;2.40;;;2.30;;
3503;SDS011;1766;53.490;10.174;2022-12-29T03:54:03;4.50;;;2.17;;
3503;SDS011;1766;53.490;10.174;2022-12-29T03:56:05;2.10;;;2.00;;
3503;SDS011;1766;53.490;10.174;2022-12-29T03:58:07;3.63;;;2.10;;
3503;SDS011;1766;53.490;10.174;2022-12-29T04:00:09;2.20;;;2.00;;
3503;SDS011;1766;53.490;10.174;2022-12-29T04:02:12;2.00;;;1.90;;
3503;SDS011;1766;53.490;10.174;2022-12-29T04:04:14;2.03;;;1.80;;
3503;SDS011;1766;53.490;10.174;2022-12-29T04:06:16;2.07;;;1.97;;
3503;SDS011;1766;53.490;10.174;2022-12-29T04:08:19;3.20;;;1.93;;
3503;SDS011;1766;53.490;10.174;2022-12-29T04:10:21;2.97;;;1.60;;
3503;SDS011;1766;53.490;10.174;2022-12-29T04:12:23;2.50;;;2.30;;
3503;SDS011;1766;53.490;10.174;2022-12-29T04:14:25;2.20;;;2.10;;
3503;SDS011;1766;53.490;10.174;2022-12-29T04:16:26;1.80;;;1.70;;
3503;SDS011;1766;53.490;10.174;2022-12-29T04:18:30;5.77;;;1.87;;
3503;SDS011;1766;53.490;10.174;2022-12-29T04:20:32;1.37;;;1.27;;
3503;SDS011;1766;53.490;10.174;2022-12-29T04:22:48;3.23;;;1.63;;
3503;SDS011;1766;53.490;10.174;2022-12-29T04:24:51;5.73;;;2.00;;
3503;SDS011;1766;53.490;10.174;2022-12-29T04:26:53;1.30;;;1.20;;
3503;SDS011;1766;53.490;10.174;2022-12-29T04:28:55;2.60;;;1.53;;
3503;SDS011;1766;53.490;10.174;2022-12-29T04:30:57;2.70;;;1.57;;
3503;SDS011;1766;53.490;10.174;2022-12-29T04:32:59;1.33;;;1.23;;
3503;SDS011;1766;53.490;10.174;2022-12-29T04:35:01;1.60;;;1.50;;
3503;SDS011;1766;53.490;10.174;2022-12-29T04:37:03;1.70;;;1.60;;
3503;SDS011;1766;53.490;10.174;2022-12-29T04:39:05;2.13;;;1.30;;
3503;SDS011;1766;53.490;10.174;2022-12-29T04:41:08;2.10;;;1.50;;
3503;SDS011;1766;53.490;10.174;2022-12-29T04:43:10;2.47;;;2.20;;
3503;SDS011;1766;53.490;10.174;2022-12-29T04:45:13;2.50;;;1.50;;
3503;SDS011;1766;53.490;10.174;2022-12-29T04:47:15;1.47;;;1.47;;
3503;SDS011;1766;53.490;10.174;2022-12-29T04:49:16;1.90;;;1.20;;
3503;SDS011;1766;53.490;10.174;2022-12-29T04:51:18;1.33;;;1.33;;
3503;SDS011;1766;53.490;10.174;2022-12-29T04:53:20;1.40;;;1.30;;
3503;SDS011;1766;53.490;10.174;2022-12-29T04:55:22;1.27;;;1.27;;
3503;SDS011;1766;53.490;10.174;2022-12-29T04:57:25;3.03;;;2.80;;
3503;SDS011;1766;53.490;10.174;2022-12-29T04:59:27;1.57;;;1.30;;
3503;SDS011;1766;53.490;10.174;2022-12-29T05:01:29;2.00;;;1.00;;
3503;SDS011;1766;53.490;10.174;2022-12-29T05:03:32;1.57;;;0.97;;
3503;SDS011;1766;53.490;10.174;2022-12-29T05:05:34;1.30;;;1.20;;
3503;SDS011;1766;53.490;10.174;2022-12-29T05:07:36;1.47;;;1.10;;
3503;SDS011;1766;53.490;10.174;2022-12-29T05:09:38;1.07;;;1.03;;
3503;SDS011;1766;53.490;10.174;2022-12-29T05:11:40;1.00;;;0.87;;
3503;SDS011;1766;53.490;10.174;2022-12-29T05:13:45;1.37;;;1.33;;
3503;SDS011;1766;53.490;10.174;2022-12-29T05:15:49;1.67;;;0.93;;
3503;SDS011;1766;53.490;10.174;2022-12-29T05:17:51;1.00;;;1.00;;
3503;SDS011;1766;53.490;10.174;2022-12-29T05:19:53;1.30;;;1.20;;
3503;SDS011;1766;53.490;10.174;2022-12-29T05:21:55;3.13;;;1.10;;
3503;SDS011;1766;53.490;10.174;2022-12-29T05:23:57;1.30;;;1.20;;
3503;SDS011;1766;53.490;10.174;2022-12-29T05:25:59;2.27;;;1.40;;
3503;SDS011;1766;53.490;10.174;2022-12-29T05:28:00;2.77;;;1.53;;
3503;SDS011;1766;53.490;10.174;2022-12-29T05:30:04;0.90;;;0.90;;
3503;SDS011;1766;53.490;10.174;2022-12-29T05:32:06;1.73;;;1.30;;
3503;SDS011;1766;53.490;10.174;2022-12-29T05:34:09;3.20;;;1.97;;
3503;SDS011;1766;53.490;10.174;2022-12-29T05:36:12;1.73;;;1.63;;
3503;SDS011;1766;53.490;10.174;2022-12-29T05:38:14;1.33;;;1.33;;
3503;SDS011;1766;53.490;10.174;2022-12-29T05:40:16;1.53;;;1.43;;
3503;SDS011;1766;53.490;10.174;2022-12-29T05:42:18;1.60;;;1.50;;
3503;SDS011;1766;53.490;10.174;2022-12-29T05:44:19;2.67;;;1.20;;
3503;SDS011;1766;53.490;10.174;2022-12-29T05:46:22;1.40;;;1.30;;
3503;SDS011;1766;53.490;10.174;2022-12-29T05:48:24;2.40;;;2.17;;
3503;SDS011;1766;53.490;10.174;2022-12-29T05:50:26;1.40;;;1.30;;
3503;SDS011;1766;53.490;10.174;2022-12-29T05:52:28;1.63;;;1.50;;
3503;SDS011;1766;53.490;10.174;2022-12-29T05:54:30;1.83;;;1.20;;
3503;SDS011;1766;53.490;10.174;2022-12-29T05:56:32;1.30;;;1.20;;
3503;SDS011;1766;53.490;10.174;2022-12-29T05:58:33;1.50;;;1.40;;
3503;SDS011;1766;53.490;10.174;2022-12-29T06:00:35;3.03;;;1.30;;
3503;SDS011;1766;53.490;10.174;2022-12-29T06:02:38;1.10;;;1.07;;
3503;SDS011;1766;53.490;10.174;2022-12-29T06:04:40;1.60;;;1.30;;
3503;SDS011;1766;53.490;10.174;2022-12-29T06:06:42;1.10;;;1.10;;
3503;SDS011;1766;53.490;10.174;2022-12-29T06:08:44;1.60;;;1.37;;
3503;SDS011;1766;53.490;10.174;2022-12-29T06:10:45;1.23;;;1.13;;
3503;SDS011;1766;53.490;10.174;2022-12-29T06:12:47;1.37;;;1.27;;
3503;SDS011;1766;53.490;10.174;2022-12-29T06:14:49;2.40;;;1.20;;
3503;SDS011;1766;53.490;10.174;2022-12-29T06:16:51;1.43;;;1.30;;
3503;SDS011;1766;53.490;10.174;2022-12-29T06:18:54;0.97;;;0.90;;
3503;SDS011;1766;53.490;10.174;2022-12-29T06:20:58;1.07;;;1.07;;
3503;SDS011;1766;53.490;10.174;2022-12-29T06:23:01;1.17;;;0.97;;
3503;SDS011;1766;53.490;10.174;2022-12-29T06:25:03;2.80;;;1.63;;
3503;SDS011;1766;53.490;10.174;2022-12-29T06:27:06;2.10;;;1.30;;
3503;SDS011;1766;53.490;10.174;2022-12-29T06:29:08;0.90;;;0.90;;
3503;SDS011;1766;53.490;10.174;2022-12-29T06:31:10;4.17;;;2.10;;
3503;SDS011;1766;53.490;10.174;2022-12-29T06:33:24;1.60;;;1.50;;
3503;SDS011;1766;53.490;10.174;2022-12-29T06:35:27;1.50;;;1.40;;
3503;SDS011;1766;53.490;10.174;2022-12-29T06:37:29;1.80;;;1.00;;
3503;SDS011;1766;53.490;10.174;2022-12-29T06:39:30;1.43;;;1.30;;
3503;SDS011;1766;53.490;10.174;2022-12-29T06:41:32;0.87;;;0.87;;
3503;SDS011;1766;53.490;10.174;2022-12-29T06:43:34;0.80;;;0.50;;
3503;SDS011;1766;53.490;10.174;2022-12-29T06:45:38;0.60;;;0.60;;
3503;SDS011;1766;53.490;10.174;2022-12-29T06:47:40;1.43;;;1.23;;
3503;SDS011;1766;53.490;10.174;2022-12-29T06:49:42;0.57;;;0.57;;
3503;SDS011;1766;53.490;10.174;2022-12-29T06:51:45;0.60;;;0.50;;
3503;SDS011;1766;53.490;10.174;2022-12-29T06:53:47;0.97;;;0.70;;
3503;SDS011;1766;53.490;10.174;2022-12-29T06:55:49;0.70;;;0.70;;
3503;SDS011;1766;53.490;10.174;2022-12-29T06:57:53;0.90;;;0.90;;
3503;SDS011;1766;53.490;10.174;2022-12-29T06:59:55;1.97;;;0.90;;
3503;SDS011;1766;53.490;10.174;2022-12-29T07:01:57;0.60;;;0.60;;
3503;SDS011;1766;53.490;10.174;2022-12-29T07:04:01;1.10;;;1.10;;
3503;SDS011;1766;53.490;10.174;2022-12-29T07:06:03;2.30;;;1.00;;
3503;SDS011;1766;53.490;10.174;2022-12-29T07:08:07;1.07;;;1.03;;
3503;SDS011;1766;53.490;10.174;2022-12-29T07:10:09;1.10;;;1.10;;
3503;SDS011;1766;53.490;10.174;2022-12-29T07:12:10;1.80;;;1.20;;
3503;SDS011;1766;53.490;10.174;2022-12-29T07:14:12;1.40;;;1.33;;
3503;SDS011;1766;53.490;10.174;2022-12-29T07:16:14;1.73;;;1.37;;
3503;SDS011;1766;53.490;10.174;2022-12-29T07:18:23;1.10;;;1.03;;
3503;SDS011;1766;53.490;10.174;2022-12-29T07:20:25;1.60;;;1.50;;
3503;SDS011;1766;53.490;10.174;2022-12-29T07:22:26;1.73;;;1.17;;
3503;SDS011;1766;53.490;10.174;2022-12-29T07:24:29;1.53;;;1.43;;
3503;SDS011;1766;53.490;10.174;2022-12-29T07:26:31;1.30;;;1.30;;
3503;SDS011;1766;53.490;10.174;2022-12-29T07:28:33;1.53;;;1.43;;
3503;SDS011;1766;53.490;10.174;2022-12-29T07:30:38;2.93;;;1.33;;
3503;SDS011;1766;53.490;10.174;2022-12-29T07:32:40;1.40;;;1.40;;
3503;SDS011;1766;53.490;10.174;2022-12-29T07:34:42;2.93;;;2.67;;
3503;SDS011;1766;53.490;10.174;2022-12-29T07:36:45;1.47;;;1.37;;
3503;SDS011;1766;53.490;10.174;2022-12-29T07:38:47;3.73;;;1.30;;
3503;SDS011;1766;53.490;10.174;2022-12-29T07:40:50;3.23;;;1.50;;
3503;SDS011;1766;53.490;10.174;2022-12-29T07:42:52;3.87;;;1.47;;
3503;SDS011;1766;53.490;10.174;2022-12-29T07:44:53;2.30;;;1.20;;
3503;SDS011;1766;53.490;10.174;2022-12-29T07:46:55;1.40;;;1.10;;
3503;SDS011;1766;53.490;10.174;2022-12-29T07:48:57;1.37;;;1.27;;
3503;SDS011;1766;53.490;10.174;2022-12-29T07:50:59;4.47;;;1.10;;
3503;SDS011;1766;53.490;10.174;2022-12-29T07:53:01;1.23;;;1.13;;
3503;SDS011;1766;53.490;10.174;2022-12-29T07:55:03;1.43;;;1.00;;
3503;SDS011;1766;53.490;10.174;2022-12-29T07:57:07;4.93;;;1.43;;
3503;SDS011;1766;53.490;10.174;2022-12-29T07:59:09;1.50;;;1.40;;
3503;SDS011;1766;53.490;10.174;2022-12-29T08:01:12;3.43;;;2.73;;
3503;SDS011;1766;53.490;10.174;2022-12-29T08:03:16;1.70;;;1.60;;
3503;SDS011;1766;53.490;10.174;2022-12-29T08:05:18;2.40;;;1.50;;
3503;SDS011;1766;53.490;10.174;2022-12-29T08:07:20;1.20;;;1.10;;
3503;SDS011;1766;53.490;10.174;2022-12-29T08:09:22;1.20;;;1.03;;
3503;SDS011;1766;53.490;10.174;2022-12-29T08:11:24;1.07;;;1.07;;
3503;SDS011;1766;53.490;10.174;2022-12-29T08:13:27;1.67;;;1.10;;
3503;SDS011;1766;53.490;10.174;2022-12-29T08:15:28;1.90;;;0.90;;
3503;SDS011;1766;53.490;10.174;2022-12-29T08:17:30;1.63;;;1.33;;
3503;SDS011;1766;53.490;10.174;2022-12-29T08:19:32;1.20;;;1.10;;
3503;SDS011;1766;53.490;10.174;2022-12-29T08:21:34;1.73;;;1.37;;
3503;SDS011;1766;53.490;10.174;2022-12-29T08:23:36;2.33;;;1.87;;
3503;SDS011;1766;53.490;10.174;2022-12-29T08:25:37;1.20;;;1.10;;
3503;SDS011;1766;53.490;10.174;2022-12-29T08:27:39;1.37;;;1.27;;
3503;SDS011;1766;53.490;10.174;2022-12-29T08:29:42;1.40;;;1.40;;
3503;SDS011;1766;53.490;10.174;2022-12-29T08:31:44;1.40;;;0.87;;
3503;SDS011;1766;53.490;10.174;2022-12-29T08:33:46;1.20;;;1.10;;
3503;SDS011;1766;53.490;10.174;2022-12-29T08:35:48;2.77;;;1.00;;
3503;SDS011;1766;53.490;10.174;2022-12-29T08:37:49;1.30;;;1.20;;
3503;SDS011;1766;53.490;10.174;2022-12-29T08:39:51;1.60;;;0.90;;
3503;SDS011;1766;53.490;10.174;2022-12-29T08:41:53;1.57;;;1.00;;
3503;SDS011;1766;53.490;10.174;2022-12-29T08:43:55;0.80;;;0.80;;
3503;SDS011;1766;53.490;10.174;2022-12-29T08:45:58;2.50;;;0.90;;
3503;SDS011;1766;53.490;10.174;2022-12-29T08:48:00;0.80;;;0.80;;
3503;SDS011;1766;53.490;10.174;2022-12-29T08:50:02;2.50;;;0.97;;
3503;SDS011;1766;53.490;10.174;2022-12-29T08:52:05;1.57;;;0.80;;
3503;SDS011;1766;53.490;10.174;2022-12-29T08:54:07;0.93;;;0.73;;
3503;SDS011;1766;53.490;10.174;2022-12-29T08:56:09;2.37;;;1.50;;
3503;SDS011;1766;53.490;10.174;2022-12-29T08:58:11;5.23;;;1.37;;
3503;SDS011;1766;53.490;10.174;2022-12-29T09:00:14;2.47;;;1.00;;
3503;SDS011;1766;53.490;10.174;2022-12-29T09:02:18;1.37;;;0.60;;
3503;SDS011;1766;53.490;10.174;2022-12-29T09:04:19;3.60;;;0.87;;
3503;SDS011;1766;53.490;10.174;2022-12-29T09:06:23;1.93;;;0.77;;
3503;SDS011;1766;53.490;10.174;2022-12-29T09:08:25;1.53;;;0.70;;
3503;SDS011;1766;53.490;10.174;2022-12-29T09:10:27;0.50;;;0.50;;
3503;SDS011;1766;53.490;10.174;2022-12-29T09:12:28;0.97;;;0.60;;
3503;SDS011;1766;53.490;10.174;2022-12-29T09:14:30;1.70;;;0.60;;
3503;SDS011;1766;53.490;10.174;2022-12-29T09:16:32;2.20;;;0.60;;
3503;SDS011;1766;53.490;10.174;2022-12-29T09:18:37;3.20;;;2.50;;
3503;SDS011;1766;53.490;10.174;2022-12-29T09:20:39;1.33;;;0.70;;
3503;SDS011;1766;53.490;10.174;2022-12-29T09:22:41;7.40;;;3.97;;
3503;SDS011;1766;53.490;10.174;2022-12-29T09:24:43;5.47;;;0.67;;
3503;SDS011;1766;53.490;10.174;2022-12-29T09:26:45;2.30;;;0.47;;
3503;SDS011;1766;53.490;10.174;2022-12-29T09:28:47;2.20;;;0.50;;
3503;SDS011;1766;53.490;10.174;2022-12-29T09:30:49;1.97;;;0.70;;
3503;SDS011;1766;53.490;10.174;2022-12-29T09:32:51;1.30;;;0.70;;
3503;SDS011;1766;53.490;10.174;2022-12-29T09:34:54;3.90;;;0.67;;
3503;SDS011;1766;53.490;10.174;2022-12-29T09:36:56;1.60;;;0.50;;
3503;SDS011;1766;53.490;10.174;2022-12-29T09:38:58;2.37;;;0.60;;
3503;SDS011;1766;53.490;10.174;2022-12-29T09:41:01;2.53;;;0.60;;
3503;SDS011;1766;53.490;10.174;2022-12-29T09:43:12;2.90;;;0.60;;
3503;SDS011;1766;53.490;10.174;2022-12-29T09:45:29;2.03;;;0.63;;
3503;SDS011;1766;53.490;10.174;2022-12-29T09:47:38;3.10;;;0.97;;
3503;SDS011;1766;53.490;10.174;2022-12-29T09:49:42;3.80;;;0.73;;
3503;SDS011;1766;53.490;10.174;2022-12-29T09:51:49;2.73;;;0.60;;
3503;SDS011;1766;53.490;10.174;2022-12-29T09:53:55;2.67;;;1.10;;
3503;SDS011;1766;53.490;10.174;2022-12-29T09:56:02;2.63;;;0.80;;
3503;SDS011;1766;53.490;10.174;2022-12-29T09:58:15;3.10;;;0.80;;
3503;SDS011;1766;53.490;10.174;2022-12-29T10:00:33;1.50;;;0.47;;
3503;SDS011;1766;53.490;10.174;2022-12-29T10:02:39;3.90;;;0.97;;
3503;SDS011;1766;53.490;10.174;2022-12-29T10:04:44;5.27;;;0.80;;
3503;SDS011;1766;53.490;10.174;2022-12-29T10:06:46;2.50;;;0.97;;
3503;SDS011;1766;53.490;10.174;2022-12-29T10:08:57;2.10;;;0.83;;
3503;SDS011;1766;53.490;10.174;2022-12-29T10:11:07;1.50;;;0.70;;
3503;SDS011;1766;53.490;10.174;2022-12-29T10:13:26;2.50;;;0.53;;
3503;SDS011;1766;53.490;10.174;2022-12-29T10:15:40;2.70;;;0.60;;
3503;SDS011;1766;53.490;10.174;2022-12-29T10:17:54;4.70;;;0.63;;
3503;SDS011;1766;53.490;10.174;2022-12-29T10:20:10;2.77;;;0.53;;
3503;SDS011;1766;53.490;10.174;2022-12-29T10:22:27;0.70;;;0.70;;
3503;SDS011;1766;53.490;10.174;2022-12-29T10:24:40;2.90;;;0.63;;
3503;SDS011;1766;53.490;10.174;2022-12-29T10:26:45;3.70;;;0.70;;
3503;SDS011;1766;53.490;10.174;2022-12-29T10:28:50;3.13;;;0.80;;
3503;SDS011;1766;53.490;10.174;2022-12-29T10:30:55;1.77;;;0.60;;
3503;SDS011;1766;53.490;10.174;2022-12-29T10:33:00;1.67;;;0.70;;
3503;SDS011;1766;53.490;10.174;2022-12-29T10:35:09;4.63;;;1.17;;
3503;SDS011;1766;53.490;10.174;2022-12-29T10:37:17;2.80;;;0.73;;
3503;SDS011;1766;53.490;10.174;2022-12-29T10:39:30;1.47;;;0.50;;
3503;SDS011;1766;53.490;10.174;2022-12-29T10:41:39;3.27;;;0.93;;
3503;SDS011;1766;53.490;10.174;2022-12-29T10:43:47;2.50;;;0.30;;
3503;SDS011;1766;53.490;10.174;2022-12-29T10:45:52;4.03;;;1.00;;
3503;SDS011;1766;53.490;10.174;2022-12-29T10:47:59;5.17;;;0.70;;
3503;SDS011;1766;53.490;10.174;2022-12-29T10:50:05;4.00;;;0.60;;
3503;SDS011;1766;53.490;10.174;2022-12-29T10:52:08;6.93;;;0.93;;
3503;SDS011;1766;53.490;10.174;2022-12-29T10:54:15;7.23;;;0.90;;
3503;SDS011;1766;53.490;10.174;2022-12-29T10:56:25;4.57;;;1.43;;
3503;SDS011;1766;53.490;10.174;2022-12-29T10:58:34;2.20;;;0.80;;
3503;SDS011;1766;53.490;10.174;2022-12-29T11:00:36;5.50;;;2.40;;
3503;SDS011;1766;53.490;10.174;2022-12-29T11:02:43;5.43;;;2.00;;
3503;SDS011;1766;53.490;10.174;2022-12-29T11:04:57;4.50;;;1.13;;
3503;SDS011;1766;53.490;10.174;2022-12-29T11:07:05;5.53;;;0.80;;
3503;SDS011;1766;53.490;10.174;2022-12-29T11:09:09;3.53;;;0.90;;
3503;SDS011;1766;53.490;10.174;2022-12-29T11:11:22;4.57;;;0.67;;
3503;SDS011;1766;53.490;10.174;2022-12-29T11:13:27;4.37;;;0.73;;
3503;SDS011;1766;53.490;10.174;2022-12-29T11:15:38;4.60;;;1.03;;
3503;SDS011;1766;53.490;10.174;2022-12-29T11:17:45;2.70;;;0.70;;
3503;SDS011;1766;53.490;10.174;2022-12-29T11:19:49;3.03;;;0.73;;
3503;SDS011;1766;53.490;10.174;2022-12-29T11:21:51;3.10;;;0.60;;
3503;SDS011;1766;53.490;10.174;2022-12-29T11:23:55;3.37;;;0.80;;
3503;SDS011;1766;53.490;10.174;2022-12-29T11:26:06;2.53;;;0.93;;
3503;SDS011;1766;53.490;10.174;2022-12-29T11:28:16;3.13;;;0.50;;
3503;SDS011;1766;53.490;10.174;2022-12-29T11:30:22;3.73;;;0.60;;
3503;SDS011;1766;53.490;10.174;2022-12-29T11:32:26;2.07;;;0.60;;
3503;SDS011;1766;53.490;10.174;2022-12-29T11:34:31;2.97;;;0.60;;
3503;SDS011;1766;53.490;10.174;2022-12-29T11:36:34;4.00;;;0.90;;
3503;SDS011;1766;53.490;10.174;2022-12-29T11:38:38;2.83;;;0.47;;
3503;SDS011;1766;53.490;10.174;2022-12-29T11:40:42;3.00;;;0.60;;
3503;SDS011;1766;53.490;10.174;2022-12-29T11:42:48;4.40;;;0.80;;
3503;SDS011;1766;53.490;10.174;2022-12-29T11:44:53;3.30;;;0.83;;
3503;SDS011;1766;53.490;10.174;2022-12-29T11:46:55;4.93;;;0.83;;
3503;SDS011;1766;53.490;10.174;2022-12-29T11:48:57;3.43;;;0.70;;
3503;SDS011;1766;53.490;10.174;2022-12-29T11:51:00;2.60;;;1.07;;
3503;SDS011;1766;53.490;10.174;2022-12-29T11:53:03;3.87;;;0.70;;
3503;SDS011;1766;53.490;10.174;2022-12-29T11:55:16;3.03;;;0.60;;
3503;SDS011;1766;53.490;10.174;2022-12-29T11:57:20;1.27;;;0.63;;
3503;SDS011;1766;53.490;10.174;2022-12-29T11:59:34;2.40;;;0.70;;
3503;SDS011;1766;53.490;10.174;2022-12-29T12:01:41;2.60;;;0.50;;
3503;SDS011;1766;53.490;10.174;2022-12-29T12:03:45;2.80;;;0.50;;
3503;SDS011;1766;53.490;10.174;2022-12-29T12:05:54;3.63;;;0.67;;
3503;SDS011;1766;53.490;10.174;2022-12-29T12:08:01;5.07;;;0.70;;
3503;SDS011;1766;53.490;10.174;2022-12-29T12:10:16;1.80;;;0.67;;
3503;SDS011;1766;53.490;10.174;2022-12-29T12:12:24;5.17;;;0.73;;
3503;SDS011;1766;53.490;10.174;2022-12-29T12:14:34;2.70;;;0.40;;
3503;SDS011;1766;53.490;10.174;2022-12-29T12:16:43;6.17;;;0.70;;
3503;SDS011;1766;53.490;10.174;2022-12-29T12:18:50;2.77;;;0.67;;
3503;SDS011;1766;53.490;10.174;2022-12-29T12:20:58;2.47;;;0.80;;
3503;SDS011;1766;53.490;10.174;2022-12-29T12:23:14;3.57;;;0.60;;
3503;SDS011;1766;53.490;10.174;2022-12-29T12:25:29;4.40;;;1.03;;
3503;SDS011;1766;53.490;10.174;2022-12-29T12:27:39;5.47;;;1.10;;
3503;SDS011;1766;53.490;10.174;2022-12-29T12:29:56;5.20;;;1.10;;
3503;SDS011;1766;53.490;10.174;2022-12-29T12:32:04;2.70;;;0.80;;
3503;SDS011;1766;53.490;10.174;2022-12-29T12:34:16;4.60;;;1.03;;
3503;SDS011;1766;53.490;10.174;2022-12-29T12:36:27;5.60;;;0.83;;
3503;SDS011;1766;53.490;10.174;2022-12-29T12:38:51;5.90;;;0.80;;
3503;SDS011;1766;53.490;10.174;2022-12-29T12:41:05;3.03;;;0.80;;
3503;SDS011;1766;53.490;10.174;2022-12-29T12:43:19;3.03;;;0.73;;
3503;SDS011;1766;53.490;10.174;2022-12-29T12:45:41;6.73;;;1.00;;
3503;SDS011;1766;53.490;10.174;2022-12-29T12:47:54;9.33;;;1.20;;
3503;SDS011;1766;53.490;10.174;2022-12-29T12:50:16;5.43;;;0.90;;
3503;SDS011;1766;53.490;10.174;2022-12-29T12:52:33;7.97;;;1.20;;